Time;durP1;ratioP1;P1;durP2;ratioP2;P2;SDS_P1;SDS_P2;PMS_P1;PMS_P2;Temp;Humidity;BMP_temperature;BMP_pressure;BME280_temperature;BME280_humidity;BME280_pressure;Samples;Min_cycle;Max_cycle;Signal;HPM_P1;HPM_P2
2023/10/02 00:01:56;;;;;;;16.15;8.07;;;17.20;99.90;;;;;;5071163;28;20036;-77
2023/10/02 00:04:24;;;;;;;15.27;8.05;;;17.20;99.90;;;;;;5055515;28;20059;-77
2023/10/02 00:07:16;;;;;;;16.60;8.18;;;17.10;99.90;;;;;;5065990;28;20520;-77
2023/10/02 00:09:37;;;;;;;17.00;8.73;;;17.10;99.90;;;;;;5061816;28;20040;-77
2023/10/02 00:12:13;;;;;;;19.05;9.27;;;17.10;99.90;;;;;;5069946;28;20485;-77
2023/10/02 00:14:43;;;;;;;13.93;7.70;;;17.10;99.90;;;;;;5055003;28;20509;-77
2023/10/02 00:17:18;;;;;;;16.73;8.50;;;17.00;99.90;;;;;;5070838;28;20047;-77
2023/10/02 00:19:46;;;;;;;13.40;7.10;;;17.10;99.90;;;;;;5071994;28;20036;-77
2023/10/02 00:25:03;;;;;;;11.00;5.50;;;17.00;99.90;;;;;;5061744;28;20048;-77
2023/10/02 00:27:29;;;;;;;12.32;6.05;;;17.00;99.90;;;;;;5055209;28;20519;-77
2023/10/02 00:29:58;;;;;;;12.60;6.43;;;17.00;99.90;;;;;;5071810;28;20036;-77
2023/10/02 00:32:40;;;;;;;11.80;6.25;;;16.90;99.90;;;;;;5054214;28;20036;-77
2023/10/02 00:35:10;;;;;;;11.98;6.45;;;16.90;99.90;;;;;;5054325;28;20123;-77
2023/10/02 00:37:45;;;;;;;11.63;5.90;;;16.80;99.90;;;;;;5070871;28;20051;-77
2023/10/02 00:40:28;;;;;;;16.10;7.15;;;16.70;99.90;;;;;;5072045;28;20086;-77
2023/10/02 00:42:55;;;;;;;16.05;8.45;;;16.70;99.90;;;;;;5054119;28;20040;-77
2023/10/02 00:45:29;;;;;;;14.07;8.35;;;16.70;99.90;;;;;;5053852;28;20069;-77
2023/10/02 00:48:24;;;;;;;12.80;6.95;;;16.70;99.90;;;;;;5060500;28;20512;-77
2023/10/02 00:50:49;;;;;;;15.90;7.78;;;16.70;99.90;;;;;;5065683;28;20129;-77
2023/10/02 00:53:15;;;;;;;18.50;8.68;;;16.70;99.90;;;;;;5055526;28;20036;-77
2023/10/02 00:55:44;;;;;;;15.45;8.75;;;16.70;99.90;;;;;;5071185;28;20123;-77
2023/10/02 00:58:15;;;;;;;14.82;8.45;;;16.70;99.90;;;;;;5074821;28;20044;-77
2023/10/02 01:00:48;;;;;;;17.50;9.10;;;16.70;99.90;;;;;;5075527;28;20041;-77
2023/10/02 01:03:17;;;;;;;19.15;9.73;;;16.70;99.90;;;;;;5058048;28;20407;-76
2023/10/02 01:05:58;;;;;;;15.98;9.13;;;16.70;99.90;;;;;;5074033;28;20033;-77
2023/10/02 01:08:42;;;;;;;19.15;10.48;;;16.70;99.90;;;;;;5075490;28;20043;-77
2023/10/02 01:11:13;;;;;;;18.48;10.25;;;16.80;99.90;;;;;;5075246;28;20042;-77
2023/10/02 01:13:40;;;;;;;21.00;11.02;;;16.80;99.90;;;;;;5091341;28;20040;-77
2023/10/02 01:16:09;;;;;;;20.85;11.32;;;16.80;99.90;;;;;;5073526;28;20078;-77
2023/10/02 01:18:37;;;;;;;20.80;10.35;;;16.80;99.90;;;;;;5058554;28;20052;-77
2023/10/02 01:21:11;;;;;;;19.63;10.75;;;16.80;99.90;;;;;;5058517;28;20531;-77
2023/10/02 01:26:37;;;;;;;20.50;10.43;;;16.80;99.90;;;;;;5073677;28;20504;-77
2023/10/02 01:29:06;;;;;;;20.95;11.27;;;16.90;99.90;;;;;;5057355;28;20033;-77
2023/10/02 01:31:35;;;;;;;18.10;10.35;;;16.90;99.90;;;;;;5057402;28;20036;-77
2023/10/02 01:34:05;;;;;;;21.73;11.38;;;16.90;99.90;;;;;;5057259;28;20550;-77
2023/10/02 01:36:35;;;;;;;21.50;11.63;;;16.90;99.90;;;;;;5052736;28;20040;-77
2023/10/02 01:39:12;;;;;;;19.65;10.43;;;16.80;99.90;;;;;;5055128;28;20465;-77
2023/10/02 01:41:38;;;;;;;20.08;11.02;;;16.80;99.90;;;;;;5039970;28;20082;-77
2023/10/02 01:44:10;;;;;;;23.67;11.68;;;16.80;99.90;;;;;;5072896;28;20032;-77
2023/10/02 01:46:49;;;;;;;21.52;11.25;;;16.80;99.90;;;;;;5064813;28;20048;-77
2023/10/02 01:49:25;;;;;;;19.48;10.85;;;16.80;99.90;;;;;;5060573;28;20041;-77
2023/10/02 01:51:55;;;;;;;19.38;11.25;;;16.80;99.90;;;;;;5070271;28;20032;-77
2023/10/02 01:54:22;;;;;;;19.85;10.75;;;16.80;99.90;;;;;;5055108;28;20036;-77
2023/10/02 01:56:49;;;;;;;22.23;11.85;;;16.80;99.90;;;;;;5055281;28;20127;-77
2023/10/02 01:59:16;;;;;;;20.02;10.55;;;16.80;99.90;;;;;;5056331;28;20090;-77
2023/10/02 02:01:57;;;;;;;18.63;10.00;;;16.80;99.90;;;;;;5073619;28;20489;-77
2023/10/02 02:04:28;;;;;;;21.52;11.68;;;16.80;99.90;;;;;;5074232;28;20485;-76
2023/10/02 02:06:56;;;;;;;17.83;10.35;;;16.70;99.90;;;;;;5055387;28;20075;-76
2023/10/02 02:09:37;;;;;;;20.27;10.43;;;16.70;99.90;;;;;;5054577;28;20040;-76
2023/10/02 02:12:07;;;;;;;17.63;10.93;;;16.70;99.90;;;;;;5042344;28;20036;-77
2023/10/02 02:14:49;;;;;;;16.95;10.15;;;16.70;99.90;;;;;;5057797;28;20086;-77
2023/10/02 02:17:17;;;;;;;19.10;10.40;;;16.70;99.90;;;;;;5071286;28;20044;-77
2023/10/02 02:19:48;;;;;;;21.15;10.02;;;16.70;99.90;;;;;;5057284;28;20040;-77
2023/10/02 02:22:26;;;;;;;22.23;11.35;;;16.70;99.90;;;;;;5072468;28;20040;-77
2023/10/02 02:24:58;;;;;;;20.15;10.23;;;16.70;99.90;;;;;;5055997;28;20503;-77
2023/10/02 02:27:24;;;;;;;20.15;11.07;;;16.70;99.90;;;;;;5055305;28;20033;-77
2023/10/02 02:29:54;;;;;;;20.02;10.70;;;16.70;99.90;;;;;;5073219;28;20039;-77
2023/10/02 02:32:35;;;;;;;20.58;11.55;;;16.70;99.90;;;;;;5056202;28;20024;-77
2023/10/02 02:35:06;;;;;;;21.10;11.40;;;16.70;99.90;;;;;;5056684;28;20037;-77
2023/10/02 02:37:32;;;;;;;22.13;11.25;;;16.70;99.90;;;;;;5067421;28;20044;-77
2023/10/02 02:40:22;;;;;;;21.75;11.90;;;16.70;99.90;;;;;;5072677;28;20569;-77
2023/10/02 02:42:45;;;;;;;23.38;12.07;;;16.70;99.90;;;;;;5072363;28;20463;-77
2023/10/02 02:45:30;;;;;;;20.10;10.68;;;16.70;99.90;;;;;;5072461;28;21127;-77
2023/10/02 02:47:57;;;;;;;19.23;11.05;;;16.70;99.90;;;;;;5055026;28;20033;-77
2023/10/02 02:50:28;;;;;;;21.02;11.40;;;16.70;99.90;;;;;;5066818;28;20032;-77
2023/10/02 02:55:38;;;;;;;21.33;11.43;;;16.70;99.90;;;;;;5071937;28;20378;-77
2023/10/02 02:58:06;;;;;;;22.80;11.38;;;16.70;99.90;;;;;;5059826;28;20043;-77
2023/10/02 03:00:35;;;;;;;21.92;11.52;;;16.70;99.90;;;;;;5073262;28;20119;-77
2023/10/02 03:03:02;;;;;;;20.02;11.20;;;16.80;99.90;;;;;;5073057;28;20043;-77
2023/10/02 03:05:38;;;;;;;23.38;12.25;;;16.70;99.90;;;;;;5073000;28;20040;-77
2023/10/02 03:08:05;;;;;;;22.05;11.70;;;16.70;99.90;;;;;;5074971;28;20037;-77
2023/10/02 03:10:36;;;;;;;24.52;12.90;;;16.70;99.90;;;;;;5053403;28;20037;-77
2023/10/02 03:13:15;;;;;;;23.42;11.77;;;16.70;99.90;;;;;;5089463;28;20484;-77
2023/10/02 03:15:48;;;;;;;21.70;12.50;;;16.70;99.90;;;;;;5055718;28;20127;-77
2023/10/02 03:18:30;;;;;;;22.17;12.20;;;16.70;99.90;;;;;;5066403;28;20033;-77
2023/10/02 03:20:57;;;;;;;22.52;12.00;;;16.70;99.90;;;;;;5053008;28;20493;-77
2023/10/02 03:23:27;;;;;;;25.50;13.35;;;16.70;99.90;;;;;;5066700;28;20496;-77
2023/10/02 03:25:56;;;;;;;22.17;12.75;;;16.70;99.90;;;;;;5052265;28;20043;-77
2023/10/02 03:28:28;;;;;;;22.73;12.07;;;16.70;99.90;;;;;;5057584;28;20044;-77
2023/10/02 03:30:57;;;;;;;22.63;11.02;;;16.70;99.90;;;;;;5055551;28;20514;-77
2023/10/02 03:33:25;;;;;;;24.02;12.20;;;16.70;99.90;;;;;;5071986;28;20439;-77
2023/10/02 03:36:28;;;;;;;23.77;12.45;;;16.70;99.90;;;;;;5071172;28;20072;-77
2023/10/02 03:38:48;;;;;;;22.42;12.35;;;16.60;99.90;;;;;;5057414;28;20075;-77
2023/10/02 03:41:14;;;;;;;23.30;12.23;;;16.70;99.90;;;;;;5072484;28;20094;-77
2023/10/02 03:43:49;;;;;;;22.23;12.13;;;16.70;99.90;;;;;;5072493;28;20041;-77
2023/10/02 03:46:35;;;;;;;21.52;11.30;;;16.70;99.90;;;;;;5072380;28;20500;-77
2023/10/02 03:49:04;;;;;;;21.85;12.30;;;16.60;99.90;;;;;;5060998;28;20032;-77
2023/10/02 03:51:36;;;;;;;21.00;12.07;;;16.60;99.90;;;;;;5055578;28;20113;-77
2023/10/02 03:54:20;;;;;;;23.00;12.00;;;16.60;99.90;;;;;;5072248;28;20123;-77
2023/10/02 03:56:55;;;;;;;22.38;12.80;;;16.60;99.90;;;;;;5055553;28;20505;-77
2023/10/02 03:59:25;;;;;;;22.17;12.07;;;16.60;99.90;;;;;;5070709;28;20036;-77
2023/10/02 04:01:52;;;;;;;22.17;11.52;;;16.60;99.90;;;;;;5070950;28;20048;-77
2023/10/02 04:04:24;;;;;;;22.00;12.10;;;16.60;99.90;;;;;;5072097;28;20041;-77
2023/10/02 04:06:55;;;;;;;20.95;12.88;;;16.50;99.90;;;;;;5055783;28;20507;-77
2023/10/02 04:09:23;;;;;;;20.42;11.65;;;16.50;99.90;;;;;;5054026;28;20432;-77
2023/10/02 04:11:56;;;;;;;22.13;11.95;;;16.60;99.90;;;;;;5072065;28;20048;-77
2023/10/02 04:14:32;;;;;;;23.27;11.95;;;16.50;99.90;;;;;;5071966;28;20090;-77
2023/10/02 04:17:21;;;;;;;21.67;12.45;;;16.50;99.90;;;;;;5055612;28;20063;-77
2023/10/02 04:19:49;;;;;;;21.13;11.98;;;16.50;99.90;;;;;;5069702;28;20083;-77
2023/10/02 04:22:25;;;;;;;24.35;12.20;;;16.50;99.90;;;;;;5072512;28;20080;-77
2023/10/02 04:24:58;;;;;;;24.63;13.23;;;16.40;99.90;;;;;;5087812;28;20119;-77
2023/10/02 04:32:35;;;;;;;22.45;12.48;;;16.50;99.90;;;;;;5071940;28;20050;-77
2023/10/02 04:35:03;;;;;;;20.50;11.43;;;16.40;99.90;;;;;;5071682;28;20124;-77
2023/10/02 04:37:32;;;;;;;21.33;11.90;;;16.40;99.90;;;;;;5053727;28;20033;-77
2023/10/02 04:42:57;;;;;;;21.98;11.63;;;16.40;99.90;;;;;;5069687;28;20044;-77
2023/10/02 04:45:25;;;;;;;21.45;11.27;;;16.40;99.90;;;;;;5070591;28;20045;-77
2023/10/02 04:47:55;;;;;;;22.42;11.93;;;16.40;99.90;;;;;;5070037;28;20048;-77
2023/10/02 04:52:56;;;;;;;22.38;12.60;;;16.40;99.90;;;;;;5070729;28;20047;-77
2023/10/02 04:55:27;;;;;;;19.35;10.63;;;16.30;99.90;;;;;;5052831;28;20079;-77
2023/10/02 04:58:04;;;;;;;21.23;11.80;;;16.30;99.90;;;;;;5055058;28;20116;-77
2023/10/02 05:00:32;;;;;;;20.95;12.00;;;16.30;99.90;;;;;;5052817;28;20036;-77
2023/10/02 05:03:09;;;;;;;21.65;12.40;;;16.30;99.90;;;;;;5071099;28;20068;-77
2023/10/02 05:05:42;;;;;;;23.08;12.65;;;16.30;99.90;;;;;;5054209;28;20041;-77
2023/10/02 05:08:18;;;;;;;22.23;12.23;;;16.30;99.90;;;;;;5050459;28;20039;-77
2023/10/02 05:10:47;;;;;;;22.77;12.05;;;16.20;99.90;;;;;;5066771;28;20519;-77
2023/10/02 05:13:13;;;;;;;21.88;12.23;;;16.30;99.90;;;;;;5034940;28;20033;-77
2023/10/02 05:16:06;;;;;;;23.80;13.20;;;16.20;99.90;;;;;;5058390;28;20076;-77
2023/10/02 05:18:24;;;;;;;20.50;11.60;;;16.30;99.90;;;;;;5058013;28;20057;-77
2023/10/02 05:20:51;;;;;;;21.13;12.02;;;16.20;99.90;;;;;;5070627;28;20516;-77
2023/10/02 05:23:18;;;;;;;23.60;12.30;;;16.20;99.90;;;;;;5071333;28;20033;-77
2023/10/02 05:25:43;;;;;;;22.85;12.77;;;16.20;99.90;;;;;;5066324;28;20052;-77
2023/10/02 05:28:10;;;;;;;23.45;12.38;;;16.20;99.90;;;;;;5054023;28;20044;-77
2023/10/02 05:30:43;;;;;;;23.67;11.98;;;16.20;99.90;;;;;;5052131;28;20392;-77
2023/10/02 05:33:09;;;;;;;22.15;12.30;;;16.20;99.90;;;;;;5071333;28;20036;-77
2023/10/02 05:35:39;;;;;;;23.20;13.05;;;16.20;99.90;;;;;;5054496;28;20126;-77
2023/10/02 05:38:08;;;;;;;23.02;12.93;;;16.30;99.90;;;;;;5075190;28;20380;-77
2023/10/02 05:40:47;;;;;;;21.65;11.73;;;16.30;99.90;;;;;;5055747;28;20037;-77
2023/10/02 05:43:21;;;;;;;24.65;12.85;;;16.30;99.90;;;;;;5074237;28;20036;-77
2023/10/02 05:48:15;;;;;;;22.15;11.95;;;16.20;99.90;;;;;;5073755;28;20158;-77
2023/10/02 05:50:48;;;;;;;23.17;12.07;;;16.20;99.90;;;;;;5057298;28;20029;-77
2023/10/02 05:53:34;;;;;;;22.70;12.25;;;16.20;99.90;;;;;;5043081;28;20044;-77
2023/10/02 05:58:36;;;;;;;23.75;12.73;;;16.20;99.90;;;;;;5073225;28;20044;-76
2023/10/02 06:01:18;;;;;;;22.63;12.80;;;16.10;99.90;;;;;;5073381;28;20037;-77
2023/10/02 06:03:49;;;;;;;22.50;11.35;;;16.10;99.90;;;;;;5070187;28;20497;-77
2023/10/02 06:06:15;;;;;;;22.23;12.02;;;16.10;99.90;;;;;;5074000;28;20041;-77
2023/10/02 06:08:49;;;;;;;20.70;10.85;;;16.10;99.90;;;;;;5048292;28;20036;-77
2023/10/02 06:11:25;;;;;;;22.40;12.07;;;16.10;99.90;;;;;;5068046;28;20127;-76
2023/10/02 06:14:12;;;;;;;21.88;12.23;;;16.10;99.90;;;;;;5054159;28;20040;-77
2023/10/02 06:16:42;;;;;;;19.42;11.27;;;16.10;99.90;;;;;;5072348;28;20041;-77
2023/10/02 06:19:13;;;;;;;21.05;11.63;;;16.10;99.90;;;;;;5065764;28;20037;-77
2023/10/02 06:21:47;;;;;;;23.20;11.80;;;16.10;99.90;;;;;;5060494;28;20041;-77
2023/10/02 06:24:12;;;;;;;22.23;12.55;;;16.20;99.90;;;;;;5064364;28;20028;-77
2023/10/02 06:26:52;;;;;;;21.45;13.32;;;16.20;99.90;;;;;;5057351;28;20529;-77
2023/10/02 06:29:25;;;;;;;21.75;12.10;;;16.20;99.90;;;;;;5072894;28;20068;-77
2023/10/02 06:31:58;;;;;;;21.85;12.48;;;16.30;99.90;;;;;;5072573;28;20429;-77
2023/10/02 06:34:37;;;;;;;22.05;13.05;;;16.30;99.90;;;;;;5067498;28;20508;-76
2023/10/02 06:37:21;;;;;;;22.20;12.02;;;16.30;99.90;;;;;;5054832;28;20121;-76
2023/10/02 06:40:04;;;;;;;25.13;12.82;;;16.40;99.90;;;;;;5069434;28;20097;-81
2023/10/02 06:42:31;;;;;;;23.05;12.00;;;16.40;99.90;;;;;;5055635;28;20040;-81
2023/10/02 06:45:01;;;;;;;23.45;13.13;;;16.50;99.90;;;;;;5071762;28;20048;-81
2023/10/02 06:47:29;;;;;;;23.05;12.85;;;16.50;99.90;;;;;;5056014;28;20068;-79
2023/10/02 06:50:21;;;;;;;22.45;12.50;;;16.50;99.90;;;;;;5056314;28;20040;-79
2023/10/02 06:52:49;;;;;;;26.27;12.70;;;16.50;99.90;;;;;;5072558;28;20024;-80
2023/10/02 06:55:17;;;;;;;22.08;12.68;;;16.50;99.90;;;;;;5077003;28;20047;-79
2023/10/02 06:57:49;;;;;;;23.90;12.75;;;16.60;99.90;;;;;;5060990;28;20470;-82
2023/10/02 07:00:19;;;;;;;22.55;12.45;;;16.60;99.90;;;;;;5056063;28;20123;-80
2023/10/02 07:02:56;;;;;;;22.10;11.57;;;16.60;99.90;;;;;;5056630;28;20403;-82
2023/10/02 07:05:27;;;;;;;22.08;12.13;;;16.60;99.90;;;;;;5055128;28;20503;-80
2023/10/02 07:08:01;;;;;;;23.57;12.97;;;16.60;99.90;;;;;;5055423;28;20037;-80
2023/10/02 07:10:29;;;;;;;24.83;12.60;;;16.60;99.90;;;;;;5063751;28;20045;-76
2023/10/02 07:12:55;;;;;;;21.58;11.88;;;16.70;99.90;;;;;;5054594;28;20064;-76
2023/10/02 07:15:26;;;;;;;22.50;13.10;;;16.70;99.90;;;;;;5068624;28;20493;-76
2023/10/02 07:18:00;;;;;;;24.23;12.35;;;16.70;99.90;;;;;;5071582;28;20036;-76
2023/10/02 07:20:42;;;;;;;22.90;12.95;;;16.70;99.90;;;;;;5055519;28;20454;-76
2023/10/02 07:23:15;;;;;;;27.08;12.52;;;16.70;99.90;;;;;;5072947;28;20131;-76
2023/10/02 07:25:48;;;;;;;25.40;12.80;;;16.80;99.90;;;;;;5049287;28;20045;-76
2023/10/02 07:28:15;;;;;;;23.02;12.60;;;16.80;99.90;;;;;;5072267;28;20037;-76
2023/10/02 07:30:40;;;;;;;23.17;13.00;;;16.80;99.90;;;;;;5060192;28;20056;-76
2023/10/02 07:33:07;;;;;;;24.60;12.38;;;16.80;99.90;;;;;;5043598;28;20029;-76
2023/10/02 07:35:36;;;;;;;22.88;12.15;;;16.80;99.90;;;;;;5039477;28;20048;-76
2023/10/02 07:38:02;;;;;;;21.50;12.25;;;16.90;99.90;;;;;;5072099;28;20051;-76
2023/10/02 07:40:46;;;;;;;26.20;13.73;;;16.80;99.90;;;;;;5055728;28;20041;-75
2023/10/02 07:43:18;;;;;;;25.05;13.75;;;16.90;99.90;;;;;;5071412;28;20066;-76
2023/10/02 07:46:01;;;;;;;24.95;13.50;;;16.90;99.90;;;;;;5069811;28;20472;-76
2023/10/02 07:48:33;;;;;;;27.00;12.38;;;17.00;99.90;;;;;;5053585;28;20044;-76
2023/10/02 07:51:00;;;;;;;;;;;17.10;99.90;;;;;;5064855;28;20056;-76
2023/10/02 07:53:38;;;;;;;24.42;12.63;;;17.20;99.90;;;;;;5087826;28;19920;-76
2023/10/02 07:56:11;;;;;;;24.77;13.55;;;17.20;99.90;;;;;;5053855;28;20857;-76
2023/10/02 07:58:54;;;;;;;22.92;12.88;;;17.20;99.90;;;;;;5054008;28;20101;-76
2023/10/02 08:01:23;;;;;;;27.33;13.75;;;17.30;99.90;;;;;;5055405;28;20033;-76
2023/10/02 08:03:49;;;;;;;27.42;14.00;;;17.40;99.90;;;;;;5052760;28;20088;-76
2023/10/02 08:06:22;;;;;;;23.90;12.93;;;17.40;99.90;;;;;;5070285;28;20033;-75
2023/10/02 08:11:35;;;;;;;26.80;14.60;;;17.50;99.90;;;;;;5072161;28;20441;-75
2023/10/02 08:14:02;;;;;;;24.80;13.82;;;17.50;99.90;;;;;;5054850;28;20504;-76
2023/10/02 08:16:32;;;;;;;24.42;13.80;;;17.60;99.90;;;;;;5051660;28;20041;-76
2023/10/02 08:19:01;;;;;;;27.58;15.05;;;17.60;99.90;;;;;;5053944;28;20133;-76
2023/10/02 08:21:35;;;;;;;26.65;14.68;;;17.60;99.90;;;;;;5060963;28;20044;-76
2023/10/02 08:24:05;;;;;;;27.80;15.20;;;17.70;99.90;;;;;;5056451;28;20040;-76
2023/10/02 08:26:38;;;;;;;26.17;14.45;;;17.70;99.90;;;;;;5051434;28;20118;-76
2023/10/02 08:29:06;;;;;;;28.42;14.90;;;17.70;99.90;;;;;;5053059;28;20036;-76
2023/10/02 08:31:32;;;;;;;26.25;14.93;;;17.80;99.90;;;;;;5052576;28;20047;-76
2023/10/02 08:34:05;;;;;;;24.77;13.55;;;17.90;99.90;;;;;;5054757;28;20048;-76
2023/10/02 08:36:31;;;;;;;27.55;14.05;;;17.90;99.90;;;;;;5054147;28;20051;-76
2023/10/02 08:38:59;;;;;;;30.42;14.88;;;18.00;99.90;;;;;;5069195;28;20075;-76
2023/10/02 08:41:26;;;;;;;28.20;14.45;;;18.10;99.90;;;;;;5067753;28;20044;-76
2023/10/02 08:43:53;;;;;;;29.15;15.43;;;18.20;99.90;;;;;;5068100;28;20127;-76
2023/10/02 08:46:24;;;;;;;30.27;15.93;;;18.30;99.90;;;;;;5050060;28;20033;-76
2023/10/02 08:48:57;;;;;;;26.85;14.85;;;18.30;99.90;;;;;;5049622;28;20128;-76
2023/10/02 08:51:32;;;;;;;27.95;14.65;;;18.40;99.90;;;;;;5070735;28;20438;-76
2023/10/02 08:54:05;;;;;;;29.98;16.20;;;18.50;99.90;;;;;;5070469;28;20048;-76
2023/10/02 08:56:40;;;;;;;29.50;16.17;;;18.60;99.90;;;;;;5053807;28;20408;-76
2023/10/02 08:59:27;;;;;;;29.23;15.75;;;18.60;99.90;;;;;;5064988;28;20040;-76
2023/10/02 09:02:13;;;;;;;29.25;16.52;;;18.70;99.90;;;;;;5051815;28;20033;-76
2023/10/02 09:04:52;;;;;;;30.65;16.75;;;18.80;99.90;;;;;;5070870;28;20056;-76
2023/10/02 09:07:44;;;;;;;28.75;15.30;;;18.80;99.90;;;;;;5054008;28;20037;-76
2023/10/02 09:10:26;;;;;;;30.40;16.52;;;18.80;99.90;;;;;;5052714;28;20072;-76
2023/10/02 09:13:17;;;;;;;30.70;16.52;;;18.80;99.90;;;;;;5059283;28;20036;-76
2023/10/02 09:15:45;;;;;;;29.00;15.98;;;18.80;99.90;;;;;;5035158;28;20131;-76
2023/10/02 09:18:33;;;;;;;26.85;14.82;;;18.80;99.90;;;;;;5054733;28;20457;-76
2023/10/02 09:21:13;;;;;;;27.23;14.88;;;18.80;99.90;;;;;;5063327;28;20043;-76
2023/10/02 09:24:00;;;;;;;30.45;16.25;;;19.00;99.90;;;;;;5077088;28;20044;-76
2023/10/02 09:26:26;;;;;;;30.90;14.57;;;19.00;99.90;;;;;;5050430;28;20497;-76
2023/10/02 09:28:58;;;;;;;26.35;15.45;;;19.10;99.90;;;;;;5060821;28;20075;-75
2023/10/02 09:31:35;;;;;;;26.63;14.85;;;19.20;99.90;;;;;;5066594;28;20043;-75
2023/10/02 09:34:10;;;;;;;27.15;14.00;;;19.30;99.90;;;;;;5060370;28;20032;-75
2023/10/02 09:36:47;;;;;;;26.85;13.27;;;19.20;99.90;;;;;;5073234;28;20094;-75
2023/10/02 09:39:32;;;;;;;28.15;14.32;;;19.20;99.90;;;;;;5071793;28;20048;-75
2023/10/02 09:42:05;;;;;;;27.00;14.07;;;19.30;99.90;;;;;;5070919;28;20043;-75
2023/10/02 09:44:47;;;;;;;24.58;13.50;;;19.30;99.90;;;;;;5070609;28;20497;-75
2023/10/02 09:47:16;;;;;;;;;;;19.40;99.90;;;;;;5084477;28;20432;-75
2023/10/02 09:50:10;;;;;;;25.85;13.63;;;19.40;99.90;;;;;;5068759;28;19970;-75
2023/10/02 09:52:47;;;;;;;26.23;13.32;;;19.40;99.90;;;;;;5057407;28;20048;-76
2023/10/02 09:55:40;;;;;;;26.63;13.88;;;19.50;99.90;;;;;;5057792;28;20060;-76
2023/10/02 09:58:26;;;;;;;26.25;13.77;;;19.50;99.90;;;;;;5056672;28;20533;-76
2023/10/02 10:01:34;;;;;;;25.60;14.82;;;19.50;99.90;;;;;;5071255;28;20095;-76
2023/10/02 10:03:59;;;;;;;26.88;14.48;;;19.50;99.90;;;;;;5071281;28;20135;-76
2023/10/02 10:06:28;;;;;;;28.35;13.40;;;19.50;99.90;;;;;;5066740;28;20143;-76
2023/10/02 10:11:46;;;;;;;28.65;15.15;;;19.50;99.90;;;;;;5031578;28;20076;-76
2023/10/02 10:14:44;;;;;;;28.52;15.02;;;19.60;99.90;;;;;;5071477;28;20049;-76
2023/10/02 10:17:16;;;;;;;25.55;14.48;;;19.60;99.90;;;;;;5057106;28;20044;-76
2023/10/02 10:20:18;;;;;;;25.05;14.10;;;19.70;99.90;;;;;;5054937;28;20428;-76
2023/10/02 10:22:51;;;;;;;29.17;16.15;;;19.90;99.90;;;;;;5084037;28;20357;-76
2023/10/02 10:25:22;;;;;;;27.67;15.65;;;19.90;99.90;;;;;;5070952;28;20066;-76
2023/10/02 10:27:54;;;;;;;;;;;19.90;99.90;;;;;;5050751;28;20112;-76
2023/10/02 10:30:27;;;;;;;32.72;15.60;;;19.90;99.90;;;;;;5070281;28;19962;-76
2023/10/02 10:33:13;;;;;;;29.45;15.13;;;19.90;99.90;;;;;;5067484;28;20037;-76
2023/10/02 10:35:48;;;;;;;28.42;15.40;;;19.80;99.90;;;;;;5060360;28;20503;-76
2023/10/02 10:38:41;;;;;;;27.92;13.95;;;19.90;99.90;;;;;;5059517;28;20040;-76
2023/10/02 10:41:09;;;;;;;29.17;15.32;;;19.90;99.90;;;;;;5066338;28;20511;-76
2023/10/02 10:46:17;;;;;;;31.95;16.60;;;20.00;99.90;;;;;;5061028;28;20044;-75
2023/10/02 10:48:45;;;;;;;30.00;16.17;;;20.00;99.90;;;;;;5055450;28;20033;-75
2023/10/02 10:51:20;;;;;;;31.10;16.73;;;20.10;99.90;;;;;;5055011;28;20126;-75
2023/10/02 10:54:00;;;;;;;32.58;16.55;;;20.10;99.90;;;;;;5071679;28;20403;-75
2023/10/02 10:56:27;;;;;;;32.13;17.83;;;20.20;99.90;;;;;;5069571;28;20064;-75
2023/10/02 10:59:11;;;;;;;31.08;16.95;;;20.20;99.90;;;;;;5063344;28;20497;-85
2023/10/02 11:01:37;;;;;;;30.67;18.13;;;20.10;99.90;;;;;;5079532;28;20044;-82
2023/10/02 11:04:04;;;;;;;30.63;18.23;;;20.20;99.90;;;;;;5059454;28;20127;-82
2023/10/02 11:06:30;;;;;;;33.15;19.00;;;20.20;99.90;;;;;;5052508;28;20041;-81
2023/10/02 11:09:16;;;;;;;31.55;19.15;;;20.20;99.90;;;;;;5061675;28;20503;-83
2023/10/02 11:11:49;;;;;;;32.67;18.13;;;20.10;99.90;;;;;;5054297;28;20040;-82
2023/10/02 11:14:20;;;;;;;32.17;19.15;;;20.10;99.90;;;;;;5068491;28;20041;-83
2023/10/02 11:16:54;;;;;;;28.27;17.90;;;20.10;99.90;;;;;;5046944;28;20742;-79
2023/10/02 11:22:03;;;;;;;32.88;20.20;;;20.10;99.90;;;;;;5054855;28;20610;-79
2023/10/02 11:24:29;;;;;;;30.20;17.88;;;20.10;99.90;;;;;;5070005;28;20049;-79
2023/10/02 11:27:05;;;;;;;30.60;18.27;;;20.20;99.90;;;;;;5063917;28;20426;-79
2023/10/02 11:29:41;;;;;;;27.90;16.90;;;20.20;99.90;;;;;;5053864;28;20049;-79
2023/10/02 11:32:19;;;;;;;31.63;18.75;;;20.30;99.90;;;;;;5060168;28;20107;-79
2023/10/02 11:34:46;;;;;;;31.27;18.65;;;20.20;99.90;;;;;;5070785;28;20045;-79
2023/10/02 11:37:13;;;;;;;34.97;21.15;;;20.20;99.90;;;;;;5072462;28;20040;-79
2023/10/02 11:39:39;;;;;;;34.28;19.50;;;20.20;99.90;;;;;;5071905;28;20507;-79
2023/10/02 11:42:07;;;;;;;37.45;21.20;;;20.20;99.90;;;;;;5070518;28;20123;-79
2023/10/02 11:44:33;;;;;;;41.85;23.45;;;20.20;99.90;;;;;;5067988;28;20037;-79
2023/10/02 11:46:59;;;;;;;33.17;20.00;;;20.20;99.90;;;;;;5052372;28;20102;-79
2023/10/02 11:49:29;;;;;;;35.15;20.77;;;20.30;99.90;;;;;;5088087;28;20385;-79
2023/10/02 11:52:00;;;;;;;33.90;18.98;;;20.30;99.90;;;;;;5071229;28;20048;-79
2023/10/02 11:54:26;;;;;;;37.17;19.42;;;20.30;99.90;;;;;;5069366;28;20044;-79
2023/10/02 11:56:52;;;;;;;34.78;19.40;;;20.40;99.90;;;;;;5035564;28;20052;-79
2023/10/02 11:59:17;;;;;;;37.03;21.42;;;20.40;99.90;;;;;;5042990;28;20512;-79
2023/10/02 12:01:45;;;;;;;31.30;20.23;;;20.50;99.90;;;;;;5064150;28;20036;-79
2023/10/02 12:04:10;;;;;;;30.08;17.35;;;20.40;99.90;;;;;;5050917;28;20047;-79
2023/10/02 12:06:38;;;;;;;33.35;19.48;;;20.40;99.90;;;;;;5054182;28;20422;-79
2023/10/02 12:09:04;;;;;;;31.95;18.33;;;20.40;99.90;;;;;;5054593;28;20433;-79
2023/10/02 12:11:33;;;;;;;30.98;17.95;;;20.50;99.90;;;;;;5071936;28;20370;-79
2023/10/02 12:14:00;;;;;;;29.50;17.92;;;20.40;99.90;;;;;;5062815;28;20082;-79
2023/10/02 12:16:26;;;;;;;30.52;18.70;;;20.40;99.90;;;;;;5053659;28;20047;-79
2023/10/02 12:18:53;;;;;;;32.00;19.50;;;20.40;99.90;;;;;;5072519;28;20055;-79
2023/10/02 12:21:21;;;;;;;29.05;17.73;;;20.40;99.90;;;;;;5054504;28;20052;-79
2023/10/02 12:23:47;;;;;;;31.38;17.83;;;20.50;99.90;;;;;;5051878;28;20067;-82
2023/10/02 12:26:14;;;;;;;33.50;17.67;;;20.40;99.90;;;;;;5071630;28;20044;-79
2023/10/02 12:28:41;;;;;;;32.25;19.65;;;20.50;99.90;;;;;;5068702;28;20057;-82
2023/10/02 12:31:13;;;;;;;31.73;18.45;;;20.50;99.90;;;;;;5045369;28;20033;-79
2023/10/02 12:33:42;;;;;;;33.67;19.00;;;20.50;99.90;;;;;;5080315;28;20094;-79
2023/10/02 12:36:17;;;;;;;36.13;18.23;;;20.60;99.90;;;;;;5058723;28;20044;-79
2023/10/02 12:38:43;;;;;;;31.73;17.90;;;20.60;99.90;;;;;;5069120;28;20121;-78
2023/10/02 12:41:17;;;;;;;29.65;16.58;;;20.60;99.90;;;;;;5052443;28;20037;-79
2023/10/02 12:43:48;;;;;;;30.10;17.25;;;20.60;99.90;;;;;;5060023;28;20408;-79
2023/10/02 12:46:14;;;;;;;27.87;16.00;;;20.60;99.90;;;;;;5056916;28;20043;-78
2023/10/02 12:48:48;;;;;;;29.05;17.25;;;20.60;99.90;;;;;;5057970;28;20037;-78
2023/10/02 12:51:14;;;;;;;30.58;16.83;;;20.60;99.90;;;;;;5042363;28;20041;-78
2023/10/02 12:53:41;;;;;;;31.80;16.50;;;20.60;99.90;;;;;;5071859;28;20109;-78
2023/10/02 12:56:07;;;;;;;29.67;17.30;;;20.60;99.90;;;;;;5056926;28;20520;-78
2023/10/02 12:58:33;;;;;;;28.23;17.35;;;20.60;99.90;;;;;;5058819;28;20127;-78
2023/10/02 13:01:00;;;;;;;34.85;18.05;;;20.60;99.90;;;;;;5075254;28;20040;-78
2023/10/02 13:03:32;;;;;;;33.17;18.52;;;20.60;99.90;;;;;;5074814;28;20124;-79
2023/10/02 13:06:03;;;;;;;32.10;19.30;;;20.60;99.90;;;;;;5073428;28;20044;-78
2023/10/02 13:08:29;;;;;;;33.70;19.23;;;20.60;99.90;;;;;;5058514;28;20523;-78
2023/10/02 13:10:56;;;;;;;33.00;19.80;;;20.50;99.90;;;;;;5071814;28;20472;-78
2023/10/02 13:13:21;;;;;;;33.90;19.63;;;20.60;99.90;;;;;;5067706;28;20033;-79
2023/10/02 13:15:51;;;;;;;33.38;19.60;;;20.50;99.90;;;;;;5058348;28;20131;-79
2023/10/02 13:18:17;;;;;;;29.08;17.52;;;20.40;99.90;;;;;;5072875;28;20036;-79
2023/10/02 13:20:44;;;;;;;32.80;19.58;;;20.50;99.90;;;;;;5058295;28;20044;-79
2023/10/02 13:23:12;;;;;;;31.73;20.13;;;20.50;99.90;;;;;;5057990;28;20036;-79
2023/10/02 13:25:42;;;;;;;31.02;18.98;;;20.50;99.90;;;;;;5075141;28;20080;-79
2023/10/02 13:28:11;;;;;;;32.45;19.23;;;20.50;99.90;;;;;;5056823;28;20033;-79
2023/10/02 13:30:38;;;;;;;35.42;20.50;;;20.50;99.90;;;;;;5042925;28;20029;-79